Allensville, Ohio
Current Conditions -  °F | °C
As of 11:15 PM on Tuesday 21 Oct 2014 (Local Time) from KUNI Reporting Station
Overcast Overcast  
Wind Chill:   Ceiling: 2600
Heat Index:   Visibility: 10mi
Dew Point:   Wind: 7mph
Humidity: 78%   Direction: 310°NW
Pressure: 30.12"   Gusts: NA
Location:  39.2719°N, 82.4596°W
Report Text: KUNI 220315Z AUTO 31006KT 10SM BKN026 OVC050 08/04 A3012 RMK AO2 T00800043
Loading
Personal Weather Stations






























Interactive Weather Map
Tropical Storm Tracking
New forecast layout! Learn more

10-Day Weather Forecast

Advertisements
Track Severe Weather on mobile